ΑΕΡΟΝΑΥΤΙΛΙΑ

ΚΩΔΙΚΕΣ ΕΛΛΗΝΙΚΩΝ ΑΕΡΟΔΡΟΜΙΩΝ

LGAV 031950Z 16010KT 130V190 9999 FEW025 17/10 Q1011 NOSIG=

ΚΩΔΙΚΕΣ ΕΥΡΩΠΑΪΚΩΝ ΑΕΡΟΔΡΟΜΙΩΝ

TAF LGAV 031700Z 0318/0418 20015KT 9999 FEW015 SCT025 BKN070 TEMPO 0318/0418 5000 RA FEW015TCU BKN020 BKN070 PROB30 TEMPO 0318/0412 3000 TSRA SCT012 FEW015CB BKN020 OVC070 TEMPO 0318/0324 18020G30KT BECMG 0414/0416 VRB05KT=